Terminal Aerodrome Forecast
Issued by NWS

Home | Current Version | Previous Version | Text Only | Print | Product List | Glossary On
Versions: 1 2 3 4 5 6 7 8 9 10 11 12 13 14 15 16 17 18 19 20 21 22 23
000
FTUS43 KDLH 231021 AAA
TAFHYR
TAF AMD
KHYR 231021Z 2310/2406 17007KT P6SM BKN200 WS015/19045KT
     FM231400 18015G22KT P6SM SCT070 BKN150
     FM232000 19012G21KT P6SM -TSRA BKN050CB
      TEMPO 2320/2324 4SM TSRA SCT010 BKN025CB
     FM240000 19010G17KT P6SM VCTS BKN040CB
     FM240300 19003KT P6SM VCSH SCT030 BKN050=

USA.gov is the U.S. government's official web portal to all federal, state and local government web resources and services.